sensor_id;sensor_type;location;lat;lon;timestamp;pressure;altitude;pressure_sealevel;temperature;humidity
49072;BME280;52656;52.610;10.236;2023-04-27T00:00:35;101465.31;;;5.66;62.62
49072;BME280;52656;52.610;10.236;2023-04-27T00:03:00;101468.84;;;5.65;63.51
49072;BME280;52656;52.610;10.236;2023-04-27T00:05:33;101462.75;;;5.59;63.57
49072;BME280;52656;52.610;10.236;2023-04-27T00:07:59;101466.28;;;5.54;63.75
49072;BME280;52656;52.610;10.236;2023-04-27T00:10:24;101458.44;;;5.48;63.93
49072;BME280;52656;52.610;10.236;2023-04-27T00:12:49;101454.13;;;5.42;63.70
49072;BME280;52656;52.610;10.236;2023-04-27T00:15:15;101449.78;;;5.33;64.16
49072;BME280;52656;52.610;10.236;2023-04-27T00:17:40;101453.31;;;5.31;64.22
49072;BME280;52656;52.610;10.236;2023-04-27T00:20:07;101455.97;;;5.26;64.39
49072;BME280;52656;52.610;10.236;2023-04-27T00:22:36;101461.22;;;5.25;64.46
49072;BME280;52656;52.610;10.236;2023-04-27T00:25:01;101452.50;;;5.23;64.48
49072;BME280;52656;52.610;10.236;2023-04-27T00:27:27;101451.63;;;5.22;64.44
49072;BME280;52656;52.610;10.236;2023-04-27T00:29:52;101448.13;;;5.20;64.50
49072;BME280;52656;52.610;10.236;2023-04-27T00:32:17;101456.91;;;5.18;64.51
49072;BME280;52656;52.610;10.236;2023-04-27T00:34:43;101459.56;;;5.13;64.60
49072;BME280;52656;52.610;10.236;2023-04-27T00:37:08;101458.66;;;5.12;64.50
49072;BME280;52656;52.610;10.236;2023-04-27T00:39:34;101453.41;;;5.12;64.41
49072;BME280;52656;52.610;10.236;2023-04-27T00:42:00;101452.56;;;5.10;64.88
49072;BME280;52656;52.610;10.236;2023-04-27T00:44:26;101457.81;;;5.10;63.79
49072;BME280;52656;52.610;10.236;2023-04-27T00:46:52;101452.56;;;5.07;66.82
49072;BME280;52656;52.610;10.236;2023-04-27T00:49:18;101457.84;;;5.06;63.46
49072;BME280;52656;52.610;10.236;2023-04-27T00:51:44;101453.50;;;5.02;64.23
49072;BME280;52656;52.610;10.236;2023-04-27T00:54:09;101454.38;;;4.95;64.95
49072;BME280;52656;52.610;10.236;2023-04-27T00:56:35;101454.44;;;4.92;64.81
49072;BME280;52656;52.610;10.236;2023-04-27T00:59:00;101457.06;;;4.85;64.86
49072;BME280;52656;52.610;10.236;2023-04-27T01:01:27;101455.34;;;4.80;65.71
49072;BME280;52656;52.610;10.236;2023-04-27T01:03:53;101458.84;;;4.76;65.72
49072;BME280;52656;52.610;10.236;2023-04-27T01:06:19;101469.38;;;4.71;66.10
49072;BME280;52656;52.610;10.236;2023-04-27T01:08:44;101467.63;;;4.67;66.61
49072;BME280;52656;52.610;10.236;2023-04-27T01:11:11;101464.16;;;4.65;66.39
49072;BME280;52656;52.610;10.236;2023-04-27T01:13:36;101458.94;;;4.59;66.49
49072;BME280;52656;52.610;10.236;2023-04-27T01:16:01;101467.72;;;4.52;66.41
49072;BME280;52656;52.610;10.236;2023-04-27T01:18:27;101470.34;;;4.50;66.43
49072;BME280;52656;52.610;10.236;2023-04-27T01:20:52;101476.47;;;4.48;66.42
49072;BME280;52656;52.610;10.236;2023-04-27T01:23:17;101468.59;;;4.48;66.90
49072;BME280;52656;52.610;10.236;2023-04-27T01:25:43;101473.81;;;4.49;67.00
49072;BME280;52656;52.610;10.236;2023-04-27T01:28:08;101474.72;;;4.50;66.98
49072;BME280;52656;52.610;10.236;2023-04-27T01:30:33;101481.69;;;4.49;67.44
49072;BME280;52656;52.610;10.236;2023-04-27T01:32:59;101475.59;;;4.47;67.42
49072;BME280;52656;52.610;10.236;2023-04-27T01:35:24;101485.22;;;4.44;66.96
49072;BME280;52656;52.610;10.236;2023-04-27T01:37:50;101487.88;;;4.38;67.00
49072;BME280;52656;52.610;10.236;2023-04-27T01:40:15;101489.59;;;4.31;66.46
49072;BME280;52656;52.610;10.236;2023-04-27T01:42:40;101497.50;;;4.23;67.06
49072;BME280;52656;52.610;10.236;2023-04-27T01:45:06;101497.50;;;4.17;66.20
49072;BME280;52656;52.610;10.236;2023-04-27T01:47:32;101511.50;;;4.08;67.39
49072;BME280;52656;52.610;10.236;2023-04-27T01:49:57;101512.38;;;4.01;67.06
49072;BME280;52656;52.610;10.236;2023-04-27T01:52:22;101516.75;;;3.92;67.12
49072;BME280;52656;52.610;10.236;2023-04-27T01:54:48;101514.97;;;3.83;67.92
49072;BME280;52656;52.610;10.236;2023-04-27T01:57:13;101517.59;;;3.75;68.32
49072;BME280;52656;52.610;10.236;2023-04-27T01:59:38;101519.31;;;3.66;68.31
49072;BME280;52656;52.610;10.236;2023-04-27T02:02:04;101527.19;;;3.59;68.47
49072;BME280;52656;52.610;10.236;2023-04-27T02:04:29;101528.06;;;3.55;67.81
49072;BME280;52656;52.610;10.236;2023-04-27T02:06:55;101531.50;;;3.48;68.88
49072;BME280;52656;52.610;10.236;2023-04-27T02:09:20;101538.47;;;3.40;68.88
49072;BME280;52656;52.610;10.236;2023-04-27T02:11:45;101539.34;;;3.33;68.82
49072;BME280;52656;52.610;10.236;2023-04-27T02:14:11;101537.56;;;3.26;68.80
49072;BME280;52656;52.610;10.236;2023-04-27T02:16:36;101541.06;;;3.20;69.07
49072;BME280;52656;52.610;10.236;2023-04-27T02:19:01;101545.41;;;3.15;69.86
49072;BME280;52656;52.610;10.236;2023-04-27T02:21:27;101548.88;;;3.13;68.18
49072;BME280;52656;52.610;10.236;2023-04-27T02:23:52;101550.59;;;3.07;69.26
49072;BME280;52656;52.610;10.236;2023-04-27T02:26:19;101552.31;;;2.99;70.49
49072;BME280;52656;52.610;10.236;2023-04-27T02:28:45;101552.31;;;2.96;69.57
49072;BME280;52656;52.610;10.236;2023-04-27T02:31:12;101555.78;;;2.91;69.78
49072;BME280;52656;52.610;10.236;2023-04-27T02:33:37;101556.59;;;2.83;71.98
49072;BME280;52656;52.610;10.236;2023-04-27T02:36:03;101562.72;;;2.82;70.18
49072;BME280;52656;52.610;10.236;2023-04-27T02:38:29;101554.81;;;2.76;70.07
49072;BME280;52656;52.610;10.236;2023-04-27T02:40:54;101563.50;;;2.71;69.55
49072;BME280;52656;52.610;10.236;2023-04-27T02:43:20;101560.88;;;2.65;71.10
49072;BME280;52656;52.610;10.236;2023-04-27T02:45:45;101559.09;;;2.59;70.85
49072;BME280;52656;52.610;10.236;2023-04-27T02:48:11;101559.94;;;2.55;71.63
49072;BME280;52656;52.610;10.236;2023-04-27T02:50:40;101558.16;;;2.52;71.18
49072;BME280;52656;52.610;10.236;2023-04-27T02:53:06;101554.69;;;2.53;69.65
49072;BME280;52656;52.610;10.236;2023-04-27T02:55:31;101553.78;;;2.48;70.81
49072;BME280;52656;52.610;10.236;2023-04-27T02:57:56;101549.38;;;2.44;70.89
49072;BME280;52656;52.610;10.236;2023-04-27T03:00:22;101560.69;;;2.40;71.61
49072;BME280;52656;52.610;10.236;2023-04-27T03:02:47;101552.81;;;2.36;71.58
49072;BME280;52656;52.610;10.236;2023-04-27T03:05:13;101555.41;;;2.31;71.36
49072;BME280;52656;52.610;10.236;2023-04-27T03:07:38;101555.41;;;2.29;71.17
49072;BME280;52656;52.610;10.236;2023-04-27T03:10:03;101558.81;;;2.22;71.86
49072;BME280;52656;52.610;10.236;2023-04-27T03:12:29;101556.16;;;2.18;71.12
49072;BME280;52656;52.610;10.236;2023-04-27T03:14:54;101550.91;;;2.12;71.78
49072;BME280;52656;52.610;10.236;2023-04-27T03:17:19;101549.13;;;2.07;71.80
49072;BME280;52656;52.610;10.236;2023-04-27T03:19:46;101556.06;;;2.02;72.11
49072;BME280;52656;52.610;10.236;2023-04-27T03:22:12;101551.66;;;1.98;72.19
49072;BME280;52656;52.610;10.236;2023-04-27T03:24:37;101561.19;;;1.93;71.92
49072;BME280;52656;52.610;10.236;2023-04-27T03:27:02;101561.16;;;1.89;72.12
49072;BME280;52656;52.610;10.236;2023-04-27T03:29:28;101568.09;;;1.85;72.00
49072;BME280;52656;52.610;10.236;2023-04-27T03:31:53;101564.59;;;1.81;72.90
49072;BME280;52656;52.610;10.236;2023-04-27T03:34:19;101572.34;;;1.75;72.94
49072;BME280;52656;52.610;10.236;2023-04-27T03:36:45;101572.31;;;1.72;73.12
49072;BME280;52656;52.610;10.236;2023-04-27T03:39:11;101567.09;;;1.69;73.57
49072;BME280;52656;52.610;10.236;2023-04-27T03:41:36;101571.34;;;1.63;73.78
49072;BME280;52656;52.610;10.236;2023-04-27T03:44:02;101572.19;;;1.59;74.11
49072;BME280;52656;52.610;10.236;2023-04-27T03:46:27;101573.09;;;1.62;73.63
49072;BME280;52656;52.610;10.236;2023-04-27T03:48:52;101576.56;;;1.63;73.55
49072;BME280;52656;52.610;10.236;2023-04-27T03:51:18;101575.75;;;1.65;73.44
49072;BME280;52656;52.610;10.236;2023-04-27T03:53:43;101575.69;;;1.62;74.13
49072;BME280;52656;52.610;10.236;2023-04-27T03:56:08;101582.66;;;1.62;73.67
49072;BME280;52656;52.610;10.236;2023-04-27T03:58:34;101580.94;;;1.62;73.42
49072;BME280;52656;52.610;10.236;2023-04-27T04:00:59;101581.78;;;1.63;72.84
49072;BME280;52656;52.610;10.236;2023-04-27T04:03:25;101587.91;;;1.63;73.19
49072;BME280;52656;52.610;10.236;2023-04-27T04:05:50;101584.44;;;1.64;72.92
49072;BME280;52656;52.610;10.236;2023-04-27T04:08:15;101582.66;;;1.63;72.90
49072;BME280;52656;52.610;10.236;2023-04-27T04:10:41;101583.53;;;1.62;73.34
49072;BME280;52656;52.610;10.236;2023-04-27T04:13:06;101588.78;;;1.64;72.74
49072;BME280;52656;52.610;10.236;2023-04-27T04:15:31;101594.03;;;1.64;72.67
49072;BME280;52656;52.610;10.236;2023-04-27T04:17:57;101594.94;;;1.69;72.27
49072;BME280;52656;52.610;10.236;2023-04-27T04:20:22;101588.19;;;1.91;71.71
49072;BME280;52656;52.610;10.236;2023-04-27T04:22:48;101585.47;;;2.96;66.63
49072;BME280;52656;52.610;10.236;2023-04-27T04:25:13;101583.13;;;3.91;64.37
49072;BME280;52656;52.610;10.236;2023-04-27T04:27:39;101588.38;;;4.49;62.34
49072;BME280;52656;52.610;10.236;2023-04-27T04:30:05;101587.34;;;5.17;59.67
49072;BME280;52656;52.610;10.236;2023-04-27T04:32:31;101588.72;;;5.88;57.43
49072;BME280;52656;52.610;10.236;2023-04-27T04:34:58;101578.56;;;6.55;55.20
49072;BME280;52656;52.610;10.236;2023-04-27T04:37:25;101577.66;;;7.33;52.88
49072;BME280;52656;52.610;10.236;2023-04-27T04:39:51;101576.50;;;8.11;51.11
49072;BME280;52656;52.610;10.236;2023-04-27T04:42:16;101572.25;;;9.01;48.90
49072;BME280;52656;52.610;10.236;2023-04-27T04:44:41;101579.28;;;9.86;47.05
49072;BME280;52656;52.610;10.236;2023-04-27T04:47:07;101567.63;;;10.94;45.09
49072;BME280;52656;52.610;10.236;2023-04-27T04:49:34;101569.91;;;11.67;43.52
49072;BME280;52656;52.610;10.236;2023-04-27T04:51:59;101578.16;;;12.40;42.52
49072;BME280;52656;52.610;10.236;2023-04-27T04:54:25;101582.53;;;13.18;41.01
49072;BME280;52656;52.610;10.236;2023-04-27T04:56:50;101574.56;;;13.63;40.17
49072;BME280;52656;52.610;10.236;2023-04-27T04:59:15;101571.19;;;14.46;38.99
49072;BME280;52656;52.610;10.236;2023-04-27T05:01:41;101575.09;;;15.19;37.62
49072;BME280;52656;52.610;10.236;2023-04-27T05:04:06;101567.25;;;15.72;36.94
49072;BME280;52656;52.610;10.236;2023-04-27T05:06:32;101561.13;;;16.07;36.40
49072;BME280;52656;52.610;10.236;2023-04-27T05:08:57;101562.50;;;16.33;36.01
49072;BME280;52656;52.610;10.236;2023-04-27T05:11:23;101565.97;;;16.87;35.22
49072;BME280;52656;52.610;10.236;2023-04-27T05:13:48;101565.06;;;17.84;33.97
49072;BME280;52656;52.610;10.236;2023-04-27T05:16:14;101564.16;;;18.15;33.20
49072;BME280;52656;52.610;10.236;2023-04-27T05:18:39;101557.88;;;19.05;32.26
49072;BME280;52656;52.610;10.236;2023-04-27T05:21:12;101567.63;;;18.77;30.07
49072;BME280;52656;52.610;10.236;2023-04-27T05:23:37;101570.03;;;19.95;31.32
49072;BME280;52656;52.610;10.236;2023-04-27T05:26:10;101572.09;;;20.18;30.53
49072;BME280;52656;52.610;10.236;2023-04-27T05:28:35;101567.78;;;20.81;29.90
49072;BME280;52656;52.610;10.236;2023-04-27T05:31:01;101571.50;;;21.42;29.21
49072;BME280;52656;52.610;10.236;2023-04-27T05:33:26;101579.84;;;21.39;29.03
49072;BME280;52656;52.610;10.236;2023-04-27T05:35:51;101580.91;;;21.86;28.24
49072;BME280;52656;52.610;10.236;2023-04-27T05:38:16;101570.34;;;22.07;25.84
49072;BME280;52656;52.610;10.236;2023-04-27T05:40:42;101574.88;;;22.54;27.51
49072;BME280;52656;52.610;10.236;2023-04-27T05:43:07;101569.88;;;22.84;27.08
49072;BME280;52656;52.610;10.236;2023-04-27T05:45:32;101569.34;;;22.56;26.57
49072;BME280;52656;52.610;10.236;2023-04-27T05:47:58;101575.22;;;23.41;26.22
49072;BME280;52656;52.610;10.236;2023-04-27T05:50:23;101575.97;;;23.32;25.14
49072;BME280;52656;52.610;10.236;2023-04-27T05:52:48;101575.34;;;24.49;25.40
49072;BME280;52656;52.610;10.236;2023-04-27T05:55:14;101575.28;;;24.28;23.04
49072;BME280;52656;52.610;10.236;2023-04-27T05:57:39;101575.44;;;25.10;24.41
49072;BME280;52656;52.610;10.236;2023-04-27T06:00:05;101574.47;;;24.90;24.19
49072;BME280;52656;52.610;10.236;2023-04-27T06:02:34;101574.00;;;25.96;23.31
49072;BME280;52656;52.610;10.236;2023-04-27T06:04:59;101582.94;;;24.76;22.39
49072;BME280;52656;52.610;10.236;2023-04-27T06:07:25;101584.34;;;26.12;22.67
49072;BME280;52656;52.610;10.236;2023-04-27T06:09:50;101581.31;;;26.64;22.35
49072;BME280;52656;52.610;10.236;2023-04-27T06:12:15;101591.31;;;26.24;22.25
49072;BME280;52656;52.610;10.236;2023-04-27T06:14:41;101583.78;;;25.68;22.69
49072;BME280;52656;52.610;10.236;2023-04-27T06:17:06;101582.00;;;26.85;22.12
49072;BME280;52656;52.610;10.236;2023-04-27T06:19:31;101584.50;;;27.80;21.30
49072;BME280;52656;52.610;10.236;2023-04-27T06:21:57;101585.31;;;27.63;21.09
49072;BME280;52656;52.610;10.236;2023-04-27T06:24:22;101581.66;;;28.18;20.51
49072;BME280;52656;52.610;10.236;2023-04-27T06:26:48;101583.84;;;28.14;19.57
49072;BME280;52656;52.610;10.236;2023-04-27T06:29:14;101584.56;;;27.89;19.96
49072;BME280;52656;52.610;10.236;2023-04-27T06:31:39;101591.25;;;28.22;19.78
49072;BME280;52656;52.610;10.236;2023-04-27T06:34:05;101587.31;;;28.60;19.59
49072;BME280;52656;52.610;10.236;2023-04-27T06:36:30;101588.38;;;28.67;19.62
49072;BME280;52656;52.610;10.236;2023-04-27T06:38:56;101589.81;;;29.57;18.95
49072;BME280;52656;52.610;10.236;2023-04-27T06:41:23;101592.47;;;29.41;18.81
49072;BME280;52656;52.610;10.236;2023-04-27T06:43:49;101590.03;;;29.72;18.61
49072;BME280;52656;52.610;10.236;2023-04-27T06:46:14;101585.03;;;30.67;18.02
49072;BME280;52656;52.610;10.236;2023-04-27T06:48:40;101589.53;;;29.77;18.43
49072;BME280;52656;52.610;10.236;2023-04-27T06:51:06;101584.50;;;30.15;18.23
49072;BME280;52656;52.610;10.236;2023-04-27T06:53:31;101589.13;;;29.64;18.08
49072;BME280;52656;52.610;10.236;2023-04-27T06:55:56;101590.50;;;30.51;17.90
49072;BME280;52656;52.610;10.236;2023-04-27T06:58:22;101593.53;;;31.05;17.02
49072;BME280;52656;52.610;10.236;2023-04-27T07:00:47;101590.44;;;30.02;17.67
49072;BME280;52656;52.610;10.236;2023-04-27T07:03:13;101601.56;;;30.25;17.23
49072;BME280;52656;52.610;10.236;2023-04-27T07:05:39;101605.16;;;28.19;19.01
49072;BME280;52656;52.610;10.236;2023-04-27T07:08:04;101602.06;;;29.53;18.02
49072;BME280;52656;52.610;10.236;2023-04-27T07:10:30;101608.19;;;29.21;18.30
49072;BME280;52656;52.610;10.236;2023-04-27T07:12:55;101607.88;;;28.72;18.24
49072;BME280;52656;52.610;10.236;2023-04-27T07:15:21;101608.81;;;28.81;18.32
49072;BME280;52656;52.610;10.236;2023-04-27T07:17:46;101603.41;;;28.89;17.97
49072;BME280;52656;52.610;10.236;2023-04-27T07:20:12;101604.09;;;28.91;17.97
49072;BME280;52656;52.610;10.236;2023-04-27T07:22:38;101609.81;;;29.06;17.51
49072;BME280;52656;52.610;10.236;2023-04-27T07:25:04;101602.69;;;29.39;17.58
49072;BME280;52656;52.610;10.236;2023-04-27T07:27:30;101606.16;;;28.97;17.42
49072;BME280;52656;52.610;10.236;2023-04-27T07:29:56;101604.50;;;29.65;17.31
49072;BME280;52656;52.610;10.236;2023-04-27T07:32:21;101606.69;;;30.03;16.78
49072;BME280;52656;52.610;10.236;2023-04-27T07:34:46;101607.22;;;30.31;16.72
49072;BME280;52656;52.610;10.236;2023-04-27T07:37:12;101611.00;;;30.96;16.37
49072;BME280;52656;52.610;10.236;2023-04-27T07:39:38;101606.13;;;31.30;16.06
49072;BME280;52656;52.610;10.236;2023-04-27T07:42:03;101607.66;;;29.86;16.58
49072;BME280;52656;52.610;10.236;2023-04-27T07:44:29;101601.63;;;28.08;18.38
49072;BME280;52656;52.610;10.236;2023-04-27T07:46:54;101616.19;;;25.60;19.88
49072;BME280;52656;52.610;10.236;2023-04-27T07:49:22;101627.78;;;24.37;21.70
49072;BME280;52656;52.610;10.236;2023-04-27T07:51:49;101620.03;;;27.42;18.70
49072;BME280;52656;52.610;10.236;2023-04-27T07:54:14;101620.00;;;24.54;21.28
49072;BME280;52656;52.610;10.236;2023-04-27T07:56:41;101618.28;;;28.05;18.57
49072;BME280;52656;52.610;10.236;2023-04-27T07:59:07;101608.59;;;30.36;16.77
49072;BME280;52656;52.610;10.236;2023-04-27T08:01:32;101612.44;;;27.55;18.81
49072;BME280;52656;52.610;10.236;2023-04-27T08:03:57;101609.81;;;25.30;20.78
49072;BME280;52656;52.610;10.236;2023-04-27T08:06:23;101599.50;;;26.53;18.46
49072;BME280;52656;52.610;10.236;2023-04-27T08:08:48;101600.69;;;27.17;18.70
49072;BME280;52656;52.610;10.236;2023-04-27T08:11:13;101615.09;;;24.05;21.86
49072;BME280;52656;52.610;10.236;2023-04-27T08:13:39;101606.75;;;26.04;20.50
49072;BME280;52656;52.610;10.236;2023-04-27T08:16:05;101604.91;;;24.29;21.62
49072;BME280;52656;52.610;10.236;2023-04-27T08:18:30;101605.72;;;21.29;24.47
49072;BME280;52656;52.610;10.236;2023-04-27T08:20:55;101597.31;;;25.49;20.43
49072;BME280;52656;52.610;10.236;2023-04-27T08:23:21;101599.38;;;22.75;22.15
49072;BME280;52656;52.610;10.236;2023-04-27T08:25:46;101606.34;;;23.36;21.99
49072;BME280;52656;52.610;10.236;2023-04-27T08:28:13;101604.31;;;24.79;20.80
49072;BME280;52656;52.610;10.236;2023-04-27T08:30:40;101607.78;;;21.88;23.70
49072;BME280;52656;52.610;10.236;2023-04-27T08:33:06;101606.56;;;23.66;22.40
49072;BME280;52656;52.610;10.236;2023-04-27T08:35:32;101599.97;;;25.79;19.21
49072;BME280;52656;52.610;10.236;2023-04-27T08:37:57;101604.66;;;24.00;20.12
49072;BME280;52656;52.610;10.236;2023-04-27T08:40:23;101607.25;;;25.39;19.01
49072;BME280;52656;52.610;10.236;2023-04-27T08:42:56;101606.06;;;23.16;21.14
49072;BME280;52656;52.610;10.236;2023-04-27T08:45:23;101598.97;;;21.60;23.88
49072;BME280;52656;52.610;10.236;2023-04-27T08:47:49;101591.59;;;21.88;23.56
49072;BME280;52656;52.610;10.236;2023-04-27T08:50:15;101604.88;;;20.90;24.49
49072;BME280;52656;52.610;10.236;2023-04-27T08:52:45;101606.00;;;20.34;25.17
49072;BME280;52656;52.610;10.236;2023-04-27T08:55:11;101600.63;;;19.65;25.64
49072;BME280;52656;52.610;10.236;2023-04-27T08:57:37;101601.03;;;19.31;25.13
49072;BME280;52656;52.610;10.236;2023-04-27T09:00:03;101594.19;;;18.82;25.92
49072;BME280;52656;52.610;10.236;2023-04-27T09:02:43;101596.22;;;20.33;24.84
49072;BME280;52656;52.610;10.236;2023-04-27T09:05:17;101593.91;;;23.33;21.79
49072;BME280;52656;52.610;10.236;2023-04-27T09:08:12;101587.00;;;24.70;21.26
49072;BME280;52656;52.610;10.236;2023-04-27T09:10:48;101575.63;;;25.59;19.35
49072;BME280;52656;52.610;10.236;2023-04-27T09:13:14;101579.75;;;26.61;18.76
49072;BME280;52656;52.610;10.236;2023-04-27T09:15:47;101569.84;;;25.83;16.77
49072;BME280;52656;52.610;10.236;2023-04-27T09:18:20;101578.38;;;21.72;20.23
49072;BME280;52656;52.610;10.236;2023-04-27T09:20:50;101571.25;;;22.89;20.21
49072;BME280;52656;52.610;10.236;2023-04-27T09:23:27;101577.69;;;23.33;19.45
49072;BME280;52656;52.610;10.236;2023-04-27T09:25:57;101565.75;;;24.34;19.79
49072;BME280;52656;52.610;10.236;2023-04-27T09:28:24;101571.31;;;24.32;19.11
49072;BME280;52656;52.610;10.236;2023-04-27T09:30:56;101562.28;;;25.36;18.66
49072;BME280;52656;52.610;10.236;2023-04-27T09:33:29;101549.56;;;25.37;19.30
49072;BME280;52656;52.610;10.236;2023-04-27T09:35:57;101562.78;;;25.20;19.64
49072;BME280;52656;52.610;10.236;2023-04-27T09:38:23;101564.53;;;24.05;19.54
49072;BME280;52656;52.610;10.236;2023-04-27T09:40:50;101565.53;;;24.78;19.89
49072;BME280;52656;52.610;10.236;2023-04-27T09:43:16;101563.06;;;25.58;19.74
49072;BME280;52656;52.610;10.236;2023-04-27T09:45:42;101556.34;;;27.07;17.64
49072;BME280;52656;52.610;10.236;2023-04-27T09:48:08;101553.34;;;27.65;17.60
49072;BME280;52656;52.610;10.236;2023-04-27T09:50:41;101559.13;;;27.25;16.50
49072;BME280;52656;52.610;10.236;2023-04-27T09:53:21;101556.03;;;25.45;18.24
49072;BME280;52656;52.610;10.236;2023-04-27T10:09:22;101573.41;;;19.84;23.19
49072;BME280;52656;52.610;10.236;2023-04-27T10:11:48;101572.56;;;21.65;22.20
49072;BME280;52656;52.610;10.236;2023-04-27T10:14:19;101556.25;;;22.03;22.04
49072;BME280;52656;52.610;10.236;2023-04-27T10:16:54;101560.03;;;21.77;21.48
49072;BME280;52656;52.610;10.236;2023-04-27T10:19:21;101565.28;;;22.02;21.44
49072;BME280;52656;52.610;10.236;2023-04-27T10:21:57;101575.00;;;22.53;21.09
49072;BME280;52656;52.610;10.236;2023-04-27T10:24:38;101565.69;;;22.79;19.60
49072;BME280;52656;52.610;10.236;2023-04-27T10:27:06;101562.94;;;22.22;20.32
49072;BME280;52656;52.610;10.236;2023-04-27T10:29:42;101564.56;;;21.14;21.27
49072;BME280;52656;52.610;10.236;2023-04-27T10:32:09;101568.25;;;20.08;21.50
49072;BME280;52656;52.610;10.236;2023-04-27T10:34:35;101572.00;;;18.64;23.29
49072;BME280;52656;52.610;10.236;2023-04-27T10:37:09;101575.72;;;18.32;24.90
49072;BME280;52656;52.610;10.236;2023-04-27T10:39:39;101578.84;;;18.40;24.83
49072;BME280;52656;52.610;10.236;2023-04-27T10:42:05;101576.63;;;18.62;25.13
49072;BME280;52656;52.610;10.236;2023-04-27T10:44:32;101576.94;;;18.86;24.74
49072;BME280;52656;52.610;10.236;2023-04-27T10:47:15;101577.63;;;19.04;24.36
49072;BME280;52656;52.610;10.236;2023-04-27T10:49:41;101573.22;;;19.03;24.76
49072;BME280;52656;52.610;10.236;2023-04-27T10:52:07;101572.97;;;20.32;23.77
49072;BME280;52656;52.610;10.236;2023-04-27T10:54:34;101575.22;;;20.77;23.20
49072;BME280;52656;52.610;10.236;2023-04-27T10:57:06;101567.34;;;20.74;22.60
49072;BME280;52656;52.610;10.236;2023-04-27T10:59:33;101567.38;;;20.22;22.63
49072;BME280;52656;52.610;10.236;2023-04-27T11:02:00;101557.66;;;19.92;23.54
49072;BME280;52656;52.610;10.236;2023-04-27T11:04:38;101565.88;;;19.76;23.40
49072;BME280;52656;52.610;10.236;2023-04-27T11:07:05;101565.69;;;17.73;25.31
49072;BME280;52656;52.610;10.236;2023-04-27T11:09:30;101567.69;;;18.62;24.72
49072;BME280;52656;52.610;10.236;2023-04-27T11:11:56;101560.63;;;18.75;24.73
49072;BME280;52656;52.610;10.236;2023-04-27T11:14:21;101565.34;;;18.86;24.54
49072;BME280;52656;52.610;10.236;2023-04-27T11:16:47;101565.69;;;18.80;23.88
49072;BME280;52656;52.610;10.236;2023-04-27T11:19:13;101561.41;;;18.91;24.88
49072;BME280;52656;52.610;10.236;2023-04-27T11:21:38;101564.78;;;18.95;24.33
49072;BME280;52656;52.610;10.236;2023-04-27T11:24:05;101569.00;;;19.27;23.96
49072;BME280;52656;52.610;10.236;2023-04-27T11:26:30;101566.41;;;19.26;23.22
49072;BME280;52656;52.610;10.236;2023-04-27T11:29:01;101571.34;;;18.75;23.53
49072;BME280;52656;52.610;10.236;2023-04-27T11:31:46;101563.69;;;18.83;24.04
49072;BME280;52656;52.610;10.236;2023-04-27T11:34:17;101566.09;;;18.88;23.47
49072;BME280;52656;52.610;10.236;2023-04-27T11:36:43;101568.22;;;18.83;23.63
49072;BME280;52656;52.610;10.236;2023-04-27T11:39:16;101569.81;;;18.71;24.43
49072;BME280;52656;52.610;10.236;2023-04-27T11:41:45;101572.84;;;17.89;25.03
49072;BME280;52656;52.610;10.236;2023-04-27T11:44:11;101569.03;;;18.09;24.93
49072;BME280;52656;52.610;10.236;2023-04-27T11:46:37;101561.47;;;17.85;24.52
49072;BME280;52656;52.610;10.236;2023-04-27T11:49:04;101558.69;;;18.33;24.82
49072;BME280;52656;52.610;10.236;2023-04-27T11:51:31;101559.94;;;18.41;24.75
49072;BME280;52656;52.610;10.236;2023-04-27T11:54:04;101557.47;;;18.83;23.92
49072;BME280;52656;52.610;10.236;2023-04-27T11:56:38;101553.13;;;18.80;24.08
49072;BME280;52656;52.610;10.236;2023-04-27T11:59:04;101566.28;;;18.85;24.62
49072;BME280;52656;52.610;10.236;2023-04-27T12:01:32;101561.00;;;19.12;24.44
49072;BME280;52656;52.610;10.236;2023-04-27T12:03:57;101557.56;;;19.24;24.44
49072;BME280;52656;52.610;10.236;2023-04-27T12:06:24;101556.44;;;18.85;23.74
49072;BME280;52656;52.610;10.236;2023-04-27T12:08:50;101551.78;;;18.59;23.31
49072;BME280;52656;52.610;10.236;2023-04-27T12:11:15;101549.38;;;18.54;23.77
49072;BME280;52656;52.610;10.236;2023-04-27T12:13:41;101545.88;;;18.68;24.20
49072;BME280;52656;52.610;10.236;2023-04-27T12:16:06;101557.44;;;18.38;24.57
49072;BME280;52656;52.610;10.236;2023-04-27T12:18:31;101556.94;;;18.01;24.43
49072;BME280;52656;52.610;10.236;2023-04-27T12:20:57;101553.00;;;17.77;24.97
49072;BME280;52656;52.610;10.236;2023-04-27T12:23:23;101552.94;;;18.09;25.18
49072;BME280;52656;52.610;10.236;2023-04-27T12:25:48;101542.16;;;17.94;24.71
49072;BME280;52656;52.610;10.236;2023-04-27T12:28:13;101555.41;;;17.66;25.95
49072;BME280;52656;52.610;10.236;2023-04-27T12:30:43;101552.81;;;17.48;25.61
49072;BME280;52656;52.610;10.236;2023-04-27T12:33:08;101555.25;;;17.69;25.69
49072;BME280;52656;52.610;10.236;2023-04-27T12:35:35;101557.13;;;18.28;25.08
49072;BME280;52656;52.610;10.236;2023-04-27T12:38:00;101557.72;;;18.49;24.69
49072;BME280;52656;52.610;10.236;2023-04-27T12:40:27;101555.56;;;18.99;24.24
49072;BME280;52656;52.610;10.236;2023-04-27T12:42:52;101555.34;;;19.16;23.65
49072;BME280;52656;52.610;10.236;2023-04-27T12:45:18;101553.94;;;19.11;22.98
49072;BME280;52656;52.610;10.236;2023-04-27T12:47:43;101546.81;;;18.67;23.91
49072;BME280;52656;52.610;10.236;2023-04-27T12:50:09;101554.66;;;18.56;24.44
49072;BME280;52656;52.610;10.236;2023-04-27T12:52:34;101552.41;;;18.48;24.75